createdAt,value
2022-10-28T00:00:03.932Z,101030.13
2022-10-28T00:02:53.681Z,101023.88
2022-10-28T00:05:41.647Z,101032.00
2022-10-28T00:08:30.101Z,101030.72
2022-10-28T00:11:22.480Z,101037.63
2022-10-28T00:14:11.143Z,101036.75
2022-10-28T00:16:58.758Z,101033.22
2022-10-28T00:19:50.400Z,101029.66
2022-10-28T00:22:37.829Z,101024.44
2022-10-28T00:25:25.727Z,101026.31
2022-10-28T00:28:13.030Z,101024.63
2022-10-28T00:31:06.720Z,101024.63
2022-10-28T00:33:55.224Z,101019.38
2022-10-28T00:36:46.349Z,101015.84
2022-10-28T00:39:34.178Z,101003.31
2022-10-28T00:42:23.738Z,101000.59
2022-10-28T00:45:12.341Z,101005.38
2022-10-28T00:48:02.524Z,101001.81
2022-10-28T00:50:52.893Z,101005.56
2022-10-28T00:53:43.172Z,101003.88
2022-10-28T00:56:34.926Z,101002.00
2022-10-28T00:59:28.153Z,100992.38
2022-10-28T01:02:15.990Z,100987.81
2022-10-28T01:05:04.476Z,100990.91
2022-10-28T01:07:55.227Z,100983.78
2022-10-28T01:11:19.021Z,100984.81
2022-10-28T01:14:24.648Z,100985.84
2022-10-28T01:17:48.015Z,100977.06
2022-10-28T01:21:27.613Z,100980.78
2022-10-28T01:24:31.795Z,100977.41
2022-10-28T01:28:13.543Z,100965.97
2022-10-28T01:31:20.699Z,100972.38
2022-10-28T01:34:19.050Z,100964.47
2022-10-28T01:37:15.576Z,100963.59
2022-10-28T01:40:12.399Z,100959.22
2022-10-28T01:43:12.225Z,100958.38
2022-10-28T01:46:05.966Z,100956.69
2022-10-28T01:48:58.806Z,100954.19
2022-10-28T01:51:49.819Z,100957.91
2022-10-28T01:54:40.597Z,100945.41
2022-10-28T01:57:32.294Z,100945.41
2022-10-28T02:00:20.459Z,100938.47
2022-10-28T02:03:10.124Z,100935.78
2022-10-28T02:06:02.592Z,100929.69
2022-10-28T02:09:07.595Z,100929.69
2022-10-28T02:12:20.012Z,100933.44
2022-10-28T02:15:40.974Z,100927.38
2022-10-28T02:18:44.450Z,100935.50
2022-10-28T02:21:48.927Z,100927.53
2022-10-28T02:24:48.707Z,100924.00
2022-10-28T02:27:44.643Z,100928.59
2022-10-28T02:30:38.469Z,100924.16
2022-10-28T02:33:31.411Z,100927.75
2022-10-28T02:36:20.641Z,100935.88
2022-10-28T02:39:12.367Z,100936.88
2022-10-28T02:42:08.195Z,100927.75
2022-10-28T02:45:02.732Z,100935.00
2022-10-28T02:47:55.752Z,100929.59
2022-10-28T02:50:48.545Z,100928.97
2022-10-28T02:53:51.713Z,100925.22
2022-10-28T02:56:49.820Z,100922.69
2022-10-28T02:59:37.625Z,100915.59
2022-10-28T03:02:25.667Z,100916.63
2022-10-28T03:05:14.380Z,100918.47
2022-10-28T03:08:01.727Z,100934.53
2022-10-28T03:10:49.225Z,100932.00
2022-10-28T03:13:37.819Z,100927.47
2022-10-28T03:16:26.722Z,100922.22
2022-10-28T03:19:14.324Z,100912.22
2022-10-28T03:22:01.856Z,100922.22
2022-10-28T03:24:49.182Z,100914.09
2022-10-28T03:27:36.738Z,100909.72
2022-10-28T03:30:25.705Z,100918.69
2022-10-28T03:33:13.448Z,100912.44
2022-10-28T03:36:01.011Z,100908.03
2022-10-28T03:38:48.328Z,100915.31
2022-10-28T03:41:35.739Z,100912.59
2022-10-28T03:44:23.028Z,100913.59
2022-10-28T03:47:11.719Z,100911.78
2022-10-28T03:49:59.293Z,100910.91
2022-10-28T03:52:46.635Z,100906.53
2022-10-28T03:55:34.175Z,100914.66
2022-10-28T03:58:21.733Z,100901.28
2022-10-28T04:01:09.912Z,100912.97
2022-10-28T04:04:00.773Z,100904.00
2022-10-28T04:06:48.171Z,100905.88
2022-10-28T04:09:35.640Z,100905.03
2022-10-28T04:12:23.154Z,100905.03
2022-10-28T04:15:11.097Z,100906.06
2022-10-28T04:17:58.791Z,100901.66
2022-10-28T04:20:48.840Z,100909.78
2022-10-28T04:23:36.358Z,100904.56
2022-10-28T04:26:24.045Z,100904.56
2022-10-28T04:29:11.648Z,100906.41
2022-10-28T04:31:59.568Z,100892.88
2022-10-28T04:34:46.823Z,100878.72
2022-10-28T04:37:35.888Z,100886.84
2022-10-28T04:40:23.617Z,100887.69
2022-10-28T04:43:14.411Z,100885.97
2022-10-28T04:46:06.128Z,100886.19
2022-10-28T04:48:53.639Z,100870.94
2022-10-28T04:51:41.079Z,100872.00
2022-10-28T04:54:29.799Z,100871.16
2022-10-28T04:57:17.329Z,100868.63
2022-10-28T05:00:06.026Z,100875.91
2022-10-28T05:02:54.254Z,100879.44
2022-10-28T05:05:42.098Z,100881.69
2022-10-28T05:08:30.153Z,100887.72
2022-10-28T05:11:18.851Z,100887.94
2022-10-28T05:14:06.713Z,100876.28
2022-10-28T05:16:53.986Z,100872.06
2022-10-28T05:19:42.312Z,100875.63
2022-10-28T05:22:29.730Z,100873.09
2022-10-28T05:25:17.865Z,100878.50
2022-10-28T05:28:07.118Z,100873.09
2022-10-28T05:30:54.857Z,100868.88
2022-10-28T05:33:42.138Z,100874.28
2022-10-28T05:36:29.612Z,100877.19
2022-10-28T05:39:17.011Z,100879.03
2022-10-28T05:42:07.972Z,100879.03
2022-10-28T05:44:56.794Z,100876.34
2022-10-28T05:47:45.474Z,100875.50
2022-10-28T05:50:32.833Z,100882.94
2022-10-28T05:53:20.267Z,100871.31
2022-10-28T05:56:08.390Z,100865.06
2022-10-28T05:58:55.782Z,100869.63
2022-10-28T06:01:44.577Z,100872.50
2022-10-28T06:04:33.454Z,100869.81
2022-10-28T06:07:20.967Z,100866.25
2022-10-28T06:10:11.700Z,100864.56
2022-10-28T06:12:59.149Z,100865.44
2022-10-28T06:15:51.903Z,100863.56
2022-10-28T06:18:40.709Z,100867.09
2022-10-28T06:21:28.546Z,100862.53
2022-10-28T06:24:16.012Z,100858.97
2022-10-28T06:27:03.900Z,100870.84
2022-10-28T06:29:51.203Z,100878.59
2022-10-28T06:32:39.059Z,100876.72
2022-10-28T06:35:28.118Z,100874.66
2022-10-28T06:38:15.702Z,100870.28
2022-10-28T06:41:03.805Z,100877.19
2022-10-28T06:43:51.407Z,100880.53
2022-10-28T06:46:40.423Z,100894.56
2022-10-28T06:49:28.803Z,100883.53
2022-10-28T06:52:17.534Z,100887.72
2022-10-28T06:55:05.673Z,100887.56
2022-10-28T06:57:53.371Z,100893.25
2022-10-28T07:00:43.841Z,100889.34
2022-10-28T07:03:33.170Z,100884.41
2022-10-28T07:06:20.515Z,100884.03
2022-10-28T07:09:12.136Z,100888.69
2022-10-28T07:12:04.930Z,100887.50
2022-10-28T07:14:53.253Z,100890.13
2022-10-28T07:17:41.958Z,100892.06
2022-10-28T07:20:33.073Z,100890.69
2022-10-28T07:23:21.126Z,100886.22
2022-10-28T07:26:10.049Z,100884.63
2022-10-28T07:28:58.049Z,100887.41
2022-10-28T07:31:45.858Z,100879.56
2022-10-28T07:34:35.631Z,100889.63
2022-10-28T07:37:23.452Z,100891.78
2022-10-28T07:40:11.879Z,100890.38
2022-10-28T07:43:01.705Z,100892.06
2022-10-28T07:45:49.438Z,100898.44
2022-10-28T07:48:38.369Z,100898.88
2022-10-28T07:51:26.189Z,100900.84
2022-10-28T07:54:13.882Z,100896.72
2022-10-28T07:57:01.691Z,100900.34
2022-10-28T07:59:50.576Z,100898.34
2022-10-28T08:02:38.695Z,100904.31
2022-10-28T08:05:26.079Z,100893.97
2022-10-28T08:08:13.716Z,100880.75
2022-10-28T08:11:09.381Z,100883.78
2022-10-28T08:14:00.260Z,100884.28
2022-10-28T08:16:49.124Z,100877.66
2022-10-28T08:19:36.755Z,100875.28
2022-10-28T08:22:24.773Z,100875.19
2022-10-28T08:25:15.419Z,100871.53
2022-10-28T08:28:03.160Z,100867.47
2022-10-28T08:31:04.090Z,100866.28
2022-10-28T08:33:57.019Z,100866.78
2022-10-28T08:36:44.673Z,100861.63
2022-10-28T08:39:32.052Z,100876.16
2022-10-28T08:42:37.379Z,100865.72
2022-10-28T08:45:37.865Z,100862.00
2022-10-28T08:48:32.781Z,100870.81
2022-10-28T08:51:23.471Z,100870.38
2022-10-28T08:54:19.934Z,100877.03
2022-10-28T08:57:20.044Z,100878.38
2022-10-28T09:00:18.230Z,100881.22
2022-10-28T09:03:20.633Z,100880.63
2022-10-28T09:06:10.436Z,100880.44
2022-10-28T09:08:59.253Z,100872.66
2022-10-28T09:12:02.848Z,100867.94
2022-10-28T09:15:14.971Z,100866.41
2022-10-28T09:18:15.834Z,100868.81
2022-10-28T09:21:14.529Z,100861.38
2022-10-28T09:24:17.830Z,100869.78
2022-10-28T09:27:17.353Z,100867.94
2022-10-28T09:30:32.242Z,100862.75
2022-10-28T09:33:56.659Z,100852.66
2022-10-28T09:36:48.911Z,100856.03
2022-10-28T09:39:44.450Z,100863.53
2022-10-28T09:42:41.853Z,100856.53
2022-10-28T09:45:33.142Z,100860.94
2022-10-28T09:48:25.258Z,100859.91
2022-10-28T09:51:30.350Z,100859.28
2022-10-28T09:54:18.684Z,100859.41
2022-10-28T09:57:08.101Z,100864.78
2022-10-28T09:59:55.881Z,100861.31
2022-10-28T10:02:43.775Z,100865.81
2022-10-28T10:05:32.533Z,100846.22
2022-10-28T10:08:22.776Z,100851.09
2022-10-28T10:11:25.659Z,100848.94
2022-10-28T10:14:20.631Z,100851.66
2022-10-28T10:17:15.833Z,100853.00
2022-10-28T10:20:09.118Z,100848.28
2022-10-28T10:22:57.313Z,100845.56
2022-10-28T10:25:46.973Z,100852.13
2022-10-28T10:28:38.417Z,100852.69
2022-10-28T10:31:31.380Z,100845.78
2022-10-28T10:34:26.852Z,100844.00
2022-10-28T10:37:22.310Z,100838.94
2022-10-28T10:40:22.794Z,100839.50
2022-10-28T10:43:24.597Z,100841.69
2022-10-28T10:46:18.060Z,100837.19
2022-10-28T10:49:16.119Z,100840.00
2022-10-28T10:52:08.232Z,100833.78
2022-10-28T10:55:03.708Z,100829.97
2022-10-28T10:57:53.183Z,100836.50
2022-10-28T11:00:50.146Z,100835.88
2022-10-28T11:03:41.457Z,100824.53
2022-10-28T11:06:33.593Z,100829.59
2022-10-28T11:09:30.094Z,100833.59
2022-10-28T11:12:26.553Z,100826.84
2022-10-28T11:15:26.061Z,100822.00
2022-10-28T11:18:21.109Z,100833.06
2022-10-28T11:24:37.356Z,100813.53
2022-10-28T11:27:40.022Z,100808.13
2022-10-28T11:30:40.070Z,100801.41
2022-10-28T11:33:39.139Z,100803.75
2022-10-28T11:36:36.444Z,100797.91
2022-10-28T11:39:34.959Z,100794.28
2022-10-28T11:42:33.373Z,100795.53
2022-10-28T11:45:32.235Z,100799.84
2022-10-28T11:48:40.701Z,100784.41
2022-10-28T11:51:43.298Z,100789.59
2022-10-28T11:54:53.775Z,100788.69
2022-10-28T11:57:59.984Z,100780.81
2022-10-28T12:01:10.712Z,100778.59
2022-10-28T12:04:13.776Z,100778.91
2022-10-28T12:08:04.088Z,100763.03
2022-10-28T12:11:12.584Z,100764.38
2022-10-28T12:14:11.773Z,100769.91
2022-10-28T12:17:06.689Z,100770.34
2022-10-28T12:20:00.990Z,100761.97
2022-10-28T12:22:52.987Z,100761.81
2022-10-28T12:25:45.108Z,100762.28
2022-10-28T12:28:43.330Z,100757.28
2022-10-28T12:31:35.859Z,100757.69
2022-10-28T12:34:31.239Z,100753.31
2022-10-28T12:37:23.199Z,100746.63
2022-10-28T12:40:20.839Z,100744.34
2022-10-28T12:43:16.883Z,100732.81
2022-10-28T12:46:07.316Z,100746.69
2022-10-28T12:48:59.846Z,100740.63
2022-10-28T12:51:47.960Z,100740.81
2022-10-28T12:54:52.775Z,100740.00
2022-10-28T12:57:43.814Z,100736.28
2022-10-28T13:00:36.540Z,100728.09
2022-10-28T13:03:25.378Z,100737.94
2022-10-28T13:06:47.073Z,100723.47
2022-10-28T13:09:54.303Z,100730.00
2022-10-28T13:13:18.163Z,100731.66
2022-10-28T13:16:30.780Z,100731.84
2022-10-28T13:19:43.088Z,100722.22
2022-10-28T13:22:57.811Z,100723.09
2022-10-28T13:26:07.344Z,100721.59
2022-10-28T13:28:58.723Z,100715.31
2022-10-28T13:31:47.878Z,100706.53
2022-10-28T13:34:41.931Z,100709.25
2022-10-28T13:37:36.912Z,100713.88
2022-10-28T13:41:10.540Z,100710.31
2022-10-28T13:44:15.271Z,100697.75
2022-10-28T13:47:31.750Z,100698.78
2022-10-28T13:50:44.527Z,100701.31
2022-10-28T13:53:41.732Z,100696.06
2022-10-28T13:56:49.216Z,100700.69
2022-10-28T13:59:54.699Z,100697.97
2022-10-28T14:02:47.828Z,100705.53
2022-10-28T14:06:00.803Z,100702.19
2022-10-28T14:08:48.310Z,100695.53
2022-10-28T14:11:35.722Z,100705.38
2022-10-28T14:14:23.020Z,100703.91
2022-10-28T14:17:23.184Z,100702.25
2022-10-28T14:20:34.916Z,100693.66
2022-10-28T14:24:11.598Z,100698.50
2022-10-28T14:27:42.804Z,100698.13
2022-10-28T14:30:30.326Z,100702.97
2022-10-28T14:33:23.344Z,100694.78
2022-10-28T14:36:30.699Z,100690.41
2022-10-28T14:39:37.529Z,100693.53
2022-10-28T14:42:43.382Z,100689.16
2022-10-28T14:45:42.015Z,100682.25
2022-10-28T14:48:49.754Z,100692.34
2022-10-28T14:51:42.488Z,100689.00
2022-10-28T14:54:40.946Z,100696.34
2022-10-28T14:57:33.689Z,100692.34
2022-10-28T15:00:26.013Z,100690.69
2022-10-28T15:03:14.262Z,100683.78
2022-10-28T15:06:18.747Z,100680.66
2022-10-28T15:09:18.317Z,100683.59
2022-10-28T15:12:10.338Z,100679.44
2022-10-28T15:14:58.859Z,100672.28
2022-10-28T15:17:46.336Z,100678.81
2022-10-28T15:20:36.535Z,100676.91
2022-10-28T15:23:25.343Z,100669.81
2022-10-28T15:26:14.660Z,100672.13
2022-10-28T15:29:04.060Z,100685.53
2022-10-28T15:32:08.679Z,100683.03
2022-10-28T15:34:59.521Z,100678.84
2022-10-28T15:37:47.238Z,100679.91
2022-10-28T15:40:37.936Z,100676.56
2022-10-28T15:43:28.484Z,100678.47
2022-10-28T15:46:18.637Z,100678.66
2022-10-28T15:49:06.105Z,100679.13
2022-10-28T15:52:34.291Z,100678.50
2022-10-28T15:56:06.599Z,100680.59
2022-10-28T15:59:10.206Z,100682.94
2022-10-28T16:01:59.532Z,100686.09
2022-10-28T16:04:47.246Z,100685.69
2022-10-28T16:07:34.707Z,100675.00
2022-10-28T16:10:22.098Z,100677.13
2022-10-28T16:13:18.453Z,100680.06
2022-10-28T16:16:09.495Z,100680.25
2022-10-28T16:19:07.826Z,100682.59
2022-10-28T16:21:55.623Z,100684.50
2022-10-28T16:24:43.227Z,100688.50
2022-10-28T16:27:33.559Z,100692.25
2022-10-28T16:33:13.494Z,100679.28
2022-10-28T16:36:03.867Z,100686.84
2022-10-28T16:38:51.596Z,100677.22
2022-10-28T16:41:40.754Z,100690.22
2022-10-28T16:44:29.731Z,100686.66
2022-10-28T16:47:19.328Z,100687.06
2022-10-28T16:50:07.709Z,100692.75
2022-10-28T16:52:56.679Z,100686.69
2022-10-28T16:55:44.099Z,100696.13
2022-10-28T16:58:32.311Z,100691.94
2022-10-28T17:01:24.152Z,100700.56
2022-10-28T17:04:11.745Z,100694.47
2022-10-28T17:06:59.039Z,100688.41
2022-10-28T17:09:47.736Z,100693.22
2022-10-28T17:12:35.313Z,100691.56
2022-10-28T17:15:22.876Z,100686.50
2022-10-28T17:18:12.318Z,100688.63
2022-10-28T17:21:03.526Z,100683.81
2022-10-28T17:23:51.273Z,100688.44
2022-10-28T17:26:40.226Z,100692.41
2022-10-28T17:29:29.854Z,100690.09
2022-10-28T17:32:17.260Z,100691.16
2022-10-28T17:35:05.072Z,100690.53
2022-10-28T17:37:53.143Z,100684.69
2022-10-28T17:40:40.629Z,100689.28
2022-10-28T17:43:30.011Z,100681.53
2022-10-28T17:46:17.384Z,100677.38
2022-10-28T17:49:08.722Z,100678.63
2022-10-28T17:51:56.250Z,100675.28
2022-10-28T17:54:43.625Z,100673.63
2022-10-28T17:57:37.602Z,100683.03
2022-10-28T18:00:36.938Z,100678.88
2022-10-28T18:03:24.157Z,100678.44
2022-10-28T18:06:15.729Z,100666.09
2022-10-28T18:09:03.792Z,100669.25
2022-10-28T18:11:52.942Z,100674.69
2022-10-28T18:14:40.999Z,100673.22
2022-10-28T18:17:30.099Z,100662.53
2022-10-28T18:20:17.714Z,100656.72
2022-10-28T18:23:05.156Z,100659.63
2022-10-28T18:26:00.133Z,100665.06
2022-10-28T18:28:47.493Z,100661.13
2022-10-28T18:31:36.225Z,100661.13
2022-10-28T18:34:25.429Z,100657.97
2022-10-28T18:37:13.112Z,100657.34
2022-10-28T18:40:00.933Z,100651.50
2022-10-28T18:42:49.090Z,100647.72
2022-10-28T18:45:38.091Z,100651.69
2022-10-28T18:48:28.489Z,100652.13
2022-10-28T18:51:18.072Z,100649.41
2022-10-28T18:54:06.197Z,100649.84
2022-10-28T18:56:57.432Z,100644.59
2022-10-28T19:00:16.966Z,100648.38
2022-10-28T19:05:42.559Z,100654.00
2022-10-28T19:08:31.341Z,100655.06
2022-10-28T19:11:19.391Z,100650.66
2022-10-28T19:14:08.543Z,100649.81
2022-10-28T19:16:56.342Z,100651.91
2022-10-28T19:19:43.692Z,100649.44
2022-10-28T19:22:31.224Z,100645.66
2022-10-28T19:25:22.954Z,100645.25
2022-10-28T19:28:10.360Z,100644.19
2022-10-28T19:31:03.118Z,100642.72
2022-10-28T19:33:54.088Z,100644.59
2022-10-28T19:36:42.131Z,100641.06
2022-10-28T19:39:29.767Z,100640.22
2022-10-28T19:42:21.579Z,100638.94
2022-10-28T19:45:11.058Z,100635.59
2022-10-28T19:48:02.683Z,100643.31
2022-10-28T19:50:51.056Z,100637.28
2022-10-28T19:53:38.661Z,100643.94
2022-10-28T19:56:26.922Z,100647.06
2022-10-28T19:59:16.983Z,100634.53
2022-10-28T20:02:04.781Z,100644.34
2022-10-28T20:04:57.181Z,100648.13
2022-10-28T20:07:44.835Z,100639.16
2022-10-28T20:10:33.440Z,100629.53
2022-10-28T20:13:23.294Z,100634.53
2022-10-28T20:16:15.705Z,100627.44
2022-10-28T20:19:03.504Z,100628.28
2022-10-28T20:21:51.407Z,100635.78
2022-10-28T20:24:42.241Z,100628.06
2022-10-28T20:27:29.823Z,100626.38
2022-10-28T20:30:17.910Z,100624.72
2022-10-28T20:33:08.471Z,100624.50
2022-10-28T20:35:56.869Z,100628.25
2022-10-28T20:38:44.353Z,100632.22
2022-10-28T20:41:34.706Z,100627.84
2022-10-28T20:44:22.500Z,100625.56
2022-10-28T20:47:10.036Z,100629.53
2022-10-28T20:49:59.321Z,100631.38
2022-10-28T20:52:47.107Z,100634.97
2022-10-28T20:55:34.708Z,100634.31
2022-10-28T20:58:28.787Z,100618.41
2022-10-28T21:01:19.365Z,100624.06
2022-10-28T21:04:11.918Z,100627.81
2022-10-28T21:07:00.892Z,100629.94
2022-10-28T21:09:49.624Z,100628.47
2022-10-28T21:12:37.498Z,100621.56
2022-10-28T21:15:25.098Z,100629.50
2022-10-28T21:18:13.068Z,100629.72
2022-10-28T21:21:01.428Z,100606.06
2022-10-28T21:23:50.336Z,100615.47
2022-10-28T21:26:38.151Z,100617.78
2022-10-28T21:29:25.736Z,100613.41
2022-10-28T21:32:13.216Z,100611.28
2022-10-28T21:35:01.120Z,100612.97
2022-10-28T21:37:48.823Z,100608.78
2022-10-28T21:40:37.683Z,100610.47
2022-10-28T21:43:29.926Z,100610.88
2022-10-28T21:46:17.868Z,100616.31
2022-10-28T21:49:05.592Z,100622.78
2022-10-28T21:51:53.119Z,100618.41
2022-10-28T21:54:40.654Z,100615.88
2022-10-28T21:57:35.470Z,100616.94
2022-10-28T22:00:23.392Z,100611.06
2022-10-28T22:03:11.947Z,100605.84
2022-10-28T22:05:59.370Z,100601.44
2022-10-28T22:08:47.009Z,100600.41
2022-10-28T22:11:34.528Z,100592.47
2022-10-28T22:14:23.314Z,100596.25
2022-10-28T22:17:11.026Z,100596.25
2022-10-28T22:19:58.637Z,100592.88
2022-10-28T22:22:46.185Z,100589.13
2022-10-28T22:25:33.680Z,100592.06
2022-10-28T22:28:21.264Z,100590.59
2022-10-28T22:31:13.315Z,100597.69
2022-10-28T22:34:01.569Z,100601.63
2022-10-28T22:36:49.996Z,100602.69
2022-10-28T22:39:37.588Z,100592.84
2022-10-28T22:42:27.566Z,100601.00
2022-10-28T22:45:15.615Z,100596.63
2022-10-28T22:48:04.956Z,100597.66
2022-10-28T22:50:52.778Z,100592.22
2022-10-28T22:53:41.548Z,100595.16
2022-10-28T22:56:29.140Z,100599.75
2022-10-28T22:59:16.670Z,100602.47
2022-10-28T23:02:04.343Z,100603.50
2022-10-28T23:04:53.657Z,100590.97
2022-10-28T23:07:41.253Z,100598.47
2022-10-28T23:10:30.120Z,100593.06
2022-10-28T23:13:17.404Z,100595.53
2022-10-28T23:16:06.352Z,100589.28
2022-10-28T23:18:56.123Z,100589.50
2022-10-28T23:21:44.990Z,100592.00
2022-10-28T23:24:32.851Z,100592.00
2022-10-28T23:27:20.090Z,100594.06
2022-10-28T23:30:10.350Z,100589.69
2022-10-28T23:32:59.212Z,100585.09
2022-10-28T23:35:54.165Z,100593.47
2022-10-28T23:38:43.518Z,100583.84
2022-10-28T23:41:31.161Z,100589.47
2022-10-28T23:44:18.817Z,100586.97
2022-10-28T23:47:06.158Z,100596.97
2022-10-28T23:49:54.102Z,100598.88
2022-10-28T23:52:41.688Z,100599.69
2022-10-28T23:55:30.663Z,100589.22
2022-10-28T23:58:20.817Z,100591.94
